Fort Independence — WBH3169 — position and weather

sailwx.info

Track history (hours):
 
Tides and Currents Weather Stations Pressure Air Temp Water Temp Dewpoint Dewpoint Depression Visibility Wind Speed Wind Dir Waves Ship Positions

Fort Independence

Owner: Boston Harbor Cruises, BOSTON, MA. More information available from US FCC via Universal Licensing System and Coast Guard Vessel Documentation Center.

Last reported at 2017-Sep-18 22:41 UTC. Time now 2017-Sep-22 10:06 UTC.
Position N 42°22' W 071°03'.

Type: Passenger vessel. MMSI: 367177610.

Date/timePositionNaut miles runAvg speedWind from/ knotsBaromVisibWave heightAir tempDewpointWater temp
2017-Sep-18 22:41N 42°22' W 071°03'0 0.0
2017-Sep-18 22:30N 42°22' W 071°03'0 0.1
2017-Sep-18 22:00N 42°22' W 071°03'1 2.5
2017-Sep-18 21:30N 42°21' W 071°01'4 8.7
2017-Sep-18 21:01N 42°19' W 070°56'2 3.7
2017-Sep-18 20:31N 42°20' W 070°58'4 7.6
2017-Sep-18 20:00N 42°22' W 071°03'2 4.7
2017-Sep-18 19:30N 42°21' W 071°00'3 7.0
2017-Sep-18 19:00N 42°19' W 070°56'2 3.9
2017-Sep-18 18:30N 42°20' W 070°58'4 7.8
2017-Sep-18 18:00N 42°22' W 071°03'2 4.3
2017-Sep-18 17:30N 42°21' W 071°00'4 7.4
2017-Sep-18 17:01N 42°19' W 070°56'2 4.3
2017-Sep-18 16:30N 42°20' W 070°58'4 7.3
2017-Sep-18 16:00N 42°22' W 071°03'2 3.7
2017-Sep-18 15:30N 42°21' W 071°01'4 8.0
2017-Sep-18 15:00N 42°19' W 070°56'2 4.3
2017-Sep-18 14:30N 42°20' W 070°58'4 7.4
2017-Sep-18 14:01N 42°22' W 071°03'0 0.0
2017-Sep-18 13:30N 42°22' W 071°03'0 0.0
2017-Sep-18 13:00N 42°22' W 071°03'0 0.0
2017-Sep-18 12:31N 42°22' W 071°03'0 0.0
2017-Sep-17 22:36N 42°22' W 071°03'0 1.7
2017-Sep-17 22:30N 42°22' W 071°03'0 0.3
2017-Sep-17 22:00N 42°22' W 071°03'1 2.6
2017-Sep-17 21:30N 42°21' W 071°01'4 9.0
2017-Sep-17 21:00N 42°19' W 070°56'2 3.5
2017-Sep-17 20:31N 42°20' W 070°58'4 8.0
2017-Sep-17 20:00N 42°22' W 071°03'2 4.0
2017-Sep-17 19:30N 42°21' W 071°01'4 7.5
2017-Sep-17 19:00N 42°19' W 070°56'2 4.6
2017-Sep-17 18:31N 42°20' W 070°59'4 7.1
2017-Sep-17 18:00N 42°22' W 071°03'2 4.2
2017-Sep-17 17:30N 42°21' W 071°01'4 7.5
2017-Sep-17 17:00N 42°19' W 070°56'2 3.7
2017-Sep-17 16:30N 42°20' W 070°58'4 8.0
2017-Sep-17 16:00N 42°22' W 071°03'2 4.5
2017-Sep-17 15:30N 42°20' W 071°00'4 7.2
2017-Sep-17 15:00N 42°19' W 070°56'2 4.6
2017-Sep-17 14:31N 42°20' W 070°59'4 7.1
2017-Sep-17 14:00N 42°22' W 071°03'0 0.0
2017-Sep-17 13:30N 42°22' W 071°03'0 0.0
2017-Sep-17 13:00N 42°22' W 071°03'0 0.0
2017-Sep-16 23:15N 42°22' W 071°03'0 0.4
2017-Sep-16 23:00N 42°22' W 071°03'0 0.2
2017-Sep-16 22:30N 42°22' W 071°03'0 0.1
2017-Sep-16 22:00N 42°22' W 071°03'1 2.1
2017-Sep-16 21:30N 42°21' W 071°02'5 9.4
2017-Sep-16 21:01N 42°19' W 070°56'1 2.2
2017-Sep-16 20:30N 42°20' W 070°57'4 8.4
2017-Sep-16 20:01N 42°22' W 071°02'1 2.8
2017-Sep-16 19:30N 42°21' W 071°01'4 7.8
2017-Sep-16 19:00N 42°19' W 070°56'3 5.5
2017-Sep-16 18:30N 42°20' W 070°59'3 6.0
2017-Sep-16 17:59N 42°22' W 071°03'2 4.7
2017-Sep-16 17:30N 42°21' W 071°00'4 7.2
2017-Sep-16 17:00N 42°19' W 070°56'2 4.1
2017-Sep-16 16:30N 42°20' W 070°58'4 7.6
2017-Sep-16 16:00N 42°22' W 071°03'2 4.6
2017-Sep-16 15:30N 42°21' W 071°00'4 7.1
2017-Sep-16 15:00N 42°19' W 070°56'2 4.1
2017-Sep-16 14:30N 42°20' W 070°58'4 7.6
2017-Sep-16 14:00N 42°22' W 071°03'0 0.0
2017-Sep-16 13:30N 42°22' W 071°03'0 0.0
2017-Sep-16 13:00N 42°22' W 071°03'0 0.0
2017-Sep-16 12:30N 42°22' W 071°03'0 0.0
2017-Sep-16 12:00N 42°22' W 071°03'0 0.0
2017-Sep-15 23:32N 42°22' W 071°03'0 0.0
2017-Sep-15 23:31N 42°22' W 071°03'0 0.1
2017-Sep-15 23:00N 42°22' W 071°03'0 0.0
2017-Sep-15 22:30N 42°22' W 071°03'0 0.0
2017-Sep-15 22:01N 42°22' W 071°03'0 0.8
2017-Sep-15 21:30N 42°21' W 071°02'5 9.5
2017-Sep-15 21:00N 42°19' W 070°57'2 3.4
2017-Sep-15 20:30N 42°20' W 070°59'4 7.0
2017-Sep-15 20:01N 42°22' W 071°03'2 4.0
2017-Sep-15 19:30N 42°21' W 071°01'4 7.7
2017-Sep-15 19:00N 42°19' W 070°56'2 4.8
2017-Sep-15 18:31N 42°20' W 070°59'3 6.6
2017-Sep-15 17:59N 42°22' W 071°03'2 4.0
2017-Sep-15 17:30N 42°21' W 071°01'4 7.9
2017-Sep-15 17:01N 42°19' W 070°56'2 3.4
2017-Sep-15 16:31N 42°20' W 070°58'4 8.3
2017-Sep-15 16:00N 42°22' W 071°03'3 5.0
2017-Sep-15 15:30N 42°21' W 070°60'3 6.7
2017-Sep-15 15:01N 42°19' W 070°56'2 3.7
2017-Sep-15 14:30N 42°20' W 070°58'4 7.9
2017-Sep-15 14:00N 42°22' W 071°03'0 0.0
2017-Sep-15 13:30N 42°22' W 071°03'0 0.0
2017-Sep-15 13:00N 42°22' W 071°03'1 1.2
2017-Sep-15 12:31N 42°22' W 071°02'0 0.0
2017-Sep-15 12:00N 42°22' W 071°02'1 0.0
2017-Sep-14 22:10N 42°22' W 071°03'0 0.1
2017-Sep-14 21:54N 42°22' W 071°03'2 6.2
2017-Sep-14 21:30N 42°21' W 071°00'3 6.7
2017-Sep-14 21:00N 42°19' W 070°56'3 5.1
2017-Sep-14 20:30N 42°20' W 070°59'3 6.6
2017-Sep-14 20:01N 42°22' W 071°03'2 3.5
2017-Sep-14 19:30N 42°21' W 071°01'2 3.2
2017-Sep-14 19:00N 42°19' W 071°01'0 0.0
2017-Sep-14 18:30N 42°19' W 071°01'0 0.0
2017-Sep-14 18:00N 42°19' W 071°01'0 0.0
2017-Sep-14 17:30N 42°19' W 071°01'0 0.0
2017-Sep-14 17:00N 42°19' W 071°01'0 0.0
2017-Sep-14 16:30N 42°19' W 071°01'0 0.0
2017-Sep-14 16:01N 42°19' W 071°01'0 0.0
2017-Sep-14 15:28N 42°19' W 071°01'0 0.0
2017-Sep-14 14:52N 42°19' W 071°01'1 2.3
2017-Sep-14 14:29N 42°20' W 070°60'3 6.0
2017-Sep-14 14:01N 42°22' W 071°03'0 0.0
2017-Sep-14 13:30N 42°22' W 071°03'0 0.0
2017-Sep-14 13:00N 42°22' W 071°03'1 0.1
2017-Sep-13 22:41N 42°23' W 071°03'0 0.4
2017-Sep-13 22:31N 42°23' W 071°03'1 2.6
2017-Sep-13 22:00N 42°22' W 071°03'1 1.4
2017-Sep-13 21:30N 42°21' W 071°02'5 9.2
2017-Sep-13 21:00N 42°19' W 070°57'1 2.7
2017-Sep-13 20:31N 42°20' W 070°58'4 8.0
2017-Sep-13 20:00N 42°22' W 071°03'2 3.0
2017-Sep-13 19:30N 42°21' W 071°01'4 8.6
2017-Sep-13 19:00N 42°19' W 070°56'2 4.5
2017-Sep-13 18:30N 42°20' W 070°59'4 7.1
2017-Sep-13 18:01N 42°22' W 071°03'2 3.2
2017-Sep-13 17:30N 42°21' W 071°01'4 8.4
2017-Sep-13 17:00N 42°19' W 070°56'2 4.4
2017-Sep-13 16:30N 42°20' W 070°59'4 7.2
2017-Sep-13 16:00N 42°22' W 071°03'2 3.7
2017-Sep-13 15:30N 42°21' W 071°01'4 8.0
2017-Sep-13 15:00N 42°19' W 070°56'2 3.6
2017-Sep-13 14:30N 42°20' W 070°58'4 8.0
2017-Sep-13 14:00N 42°22' W 071°03'0 0.0
2017-Sep-13 13:30N 42°22' W 071°03'0 0.0
2017-Sep-13 13:00N 42°22' W 071°03'0 0.1
2017-Sep-13 12:30N 42°22' W 071°03'0 0.1
2017-Sep-13 12:00N 42°22' W 071°03'0 0.0
2017-Sep-12 21:59N 42°22' W 071°03'2 3.8
2017-Sep-12 21:30N 42°21' W 071°01'4 8.0
2017-Sep-12 21:00N 42°19' W 070°56'1 2.2
2017-Sep-12 20:31N 42°20' W 070°57'5 9.2
2017-Sep-12 20:01N 42°22' W 071°03'2 3.1
2017-Sep-12 19:30N 42°21' W 071°01'4 8.3
2017-Sep-12 19:00N 42°19' W 070°56'2 4.3
2017-Sep-12 18:30N 42°20' W 070°58'4 7.3
2017-Sep-12 18:00N 42°22' W 071°03'2 3.2
2017-Sep-12 17:30N 42°21' W 071°01'4 8.4
2017-Sep-12 17:00N 42°19' W 070°56'2 4.4
2017-Sep-12 16:31N 42°20' W 070°58'4 7.2
2017-Sep-12 16:00N 42°22' W 071°03'2 3.4
2017-Sep-12 15:30N 42°21' W 071°01'4 8.2
2017-Sep-12 15:00N 42°19' W 070°56'2 4.1
2017-Sep-12 14:30N 42°20' W 070°58'4 7.5
2017-Sep-12 14:00N 42°22' W 071°03'0 0.0
2017-Sep-12 13:30N 42°22' W 071°03'0 0.0
2017-Sep-12 13:00N 42°22' W 071°03'0 0.0
2017-Sep-11 22:03N 42°22' W 071°03'0 0.0
2017-Sep-11 22:00N 42°22' W 071°03'2 3.4
2017-Sep-11 21:30N 42°21' W 071°01'4 8.2
2017-Sep-11 21:00N 42°19' W 070°56'1 2.4
2017-Sep-11 20:30N 42°20' W 070°57'5 9.1
2017-Sep-11 20:00N 42°22' W 071°03'2 3.7
2017-Sep-11 19:31N 42°21' W 071°01'4 7.7
2017-Sep-11 19:00N 42°19' W 070°56'2 4.6
2017-Sep-11 18:30N 42°20' W 070°59'4 7.1
2017-Sep-11 18:00N 42°22' W 071°03'2 3.6
2017-Sep-11 17:30N 42°21' W 071°01'4 8.0
2017-Sep-11 17:00N 42°19' W 070°56'2 4.0
2017-Sep-11 16:30N 42°20' W 070°58'4 7.6
2017-Sep-11 16:00N 42°22' W 071°03'2 3.8
2017-Sep-11 15:30N 42°21' W 071°01'4 7.9
2017-Sep-11 15:00N 42°19' W 070°56'2 4.4
2017-Sep-11 14:30N 42°20' W 070°59'4 7.2
2017-Sep-11 14:00N 42°22' W 071°03'0 0.0
2017-Sep-11 13:30N 42°22' W 071°03'0 0.0
2017-Sep-10 23:42N 42°22' W 071°03'0 0.1
2017-Sep-10 23:31N 42°22' W 071°03'1 1.3
2017-Sep-10 23:00N 42°22' W 071°03'3 7.0
2017-Sep-10 22:31N 42°20' W 070°60'3 5.8
2017-Sep-10 22:00N 42°22' W 071°03'0 0.5
2017-Sep-10 21:30N 42°22' W 071°03'0 0.5
2017-Sep-10 21:00N 42°22' W 071°03'0 0.0
2017-Sep-10 20:30N 42°22' W 071°03'4 4.8
2017-Sep-10 19:47N 42°19' W 070°59'0 0.3
2017-Sep-10 19:30N 42°19' W 070°59'4 7.1
2017-Sep-10 19:00N 42°22' W 071°03'0 0.6
2017-Sep-10 18:30N 42°22' W 071°03'3 6.2
2017-Sep-10 17:57N 42°19' W 070°59'0 0.2
2017-Sep-10 17:30N 42°19' W 070°59'4 7.2
2017-Sep-10 17:00N 42°22' W 071°03'0 0.0
2017-Sep-10 16:30N 42°22' W 071°03'0 0.6
2017-Sep-10 16:01N 42°22' W 071°03'3 6.6
2017-Sep-10 15:30N 42°19' W 070°59'0 0.9
2017-Sep-10 15:00N 42°20' W 070°60'3 3.0
2017-Sep-10 14:00N 42°22' W 071°03'0 0.4
2017-Sep-10 13:30N 42°22' W 071°03'1 1.1
2017-Sep-10 13:00N 42°22' W 071°02'0 0.0
2017-Sep-10 12:30N 42°22' W 071°02'0 0.0
2017-Sep-10 12:00N 42°22' W 071°02'0 0.0
2017-Sep-10 00:32N 42°22' W 071°02'0 0.0
2017-Sep-10 00:30N 42°22' W 071°02'1 1.4
2017-Sep-10 00:00N 42°22' W 071°03'0 0.0
2017-Sep-09 23:31N 42°22' W 071°03'0 1.0
2017-Sep-09 23:00N 42°22' W 071°02'2 4.4
2017-Sep-09 22:31N 42°20' W 070°60'3 5.3
2017-Sep-09 22:00N 42°22' W 071°03'0 0.0
2017-Sep-09 21:31N 42°22' W 071°03'0 0.0
2017-Sep-09 21:01N 42°22' W 071°03'0 0.8
2017-Sep-09 20:31N 42°22' W 071°02'3 6.1
2017-Sep-09 19:58N 42°19' W 070°59'0 0.3
2017-Sep-09 19:31N 42°19' W 070°60'4 7.0
2017-Sep-09 19:00N 42°22' W 071°03'0 1.0
2017-Sep-09 18:30N 42°21' W 071°02'3 6.3
2017-Sep-09 18:00N 42°19' W 070°59'1 1.4
2017-Sep-09 17:29N 42°20' W 070°60'3 6.1
2017-Sep-09 17:01N 42°22' W 071°03'0 0.0
2017-Sep-09 16:31N 42°22' W 071°03'0 0.8
2017-Sep-09 16:00N 42°22' W 071°02'3 6.0
2017-Sep-09 15:28N 42°19' W 070°59'1 2.1
2017-Sep-09 15:00N 42°20' W 071°00'3 5.3
2017-Sep-09 14:31N 42°22' W 071°03'1 1.2
2017-Sep-09 14:01N 42°22' W 071°03'1 1.5
2017-Sep-09 13:31N 42°22' W 071°03'0 0.4
2017-Sep-09 13:01N 42°22' W 071°03'0 0.0
2017-Sep-09 12:30N 42°22' W 071°03'1 0.1
2017-Sep-08 22:59N 42°22' W 071°02'  
Track history (hours):
 
Tides and Currents Weather Stations Pressure Air Temp Water Temp Dewpoint Dewpoint Depression Visibility Wind Speed Wind Dir Waves Ship Positions

Fort Independence

Owner: Boston Harbor Cruises, BOSTON, MA. More information available from US FCC via Universal Licensing System and Coast Guard Vessel Documentation Center.

Last reported at 2017-Sep-18 22:41 UTC. Time now 2017-Sep-22 10:06 UTC.
Position N 42°22' W 071°03'.

Type: Passenger vessel. MMSI: 367177610.

Date/timePositionNaut miles runAvg speedWind from/ knotsBaromVisibWave heightAir tempDewpointWater temp
2017-Sep-18 22:41N 42°22' W 071°03'0 0.0
2017-Sep-18 22:30N 42°22' W 071°03'0 0.1
2017-Sep-18 22:00N 42°22' W 071°03'1 2.5
2017-Sep-18 21:30N 42°21' W 071°01'4 8.7
2017-Sep-18 21:01N 42°19' W 070°56'2 3.7
2017-Sep-18 20:31N 42°20' W 070°58'4 7.6
2017-Sep-18 20:00N 42°22' W 071°03'2 4.7
2017-Sep-18 19:30N 42°21' W 071°00'3 7.0
2017-Sep-18 19:00N 42°19' W 070°56'2 3.9
2017-Sep-18 18:30N 42°20' W 070°58'4 7.8
2017-Sep-18 18:00N 42°22' W 071°03'2 4.3
2017-Sep-18 17:30N 42°21' W 071°00'4 7.4
2017-Sep-18 17:01N 42°19' W 070°56'2 4.3
2017-Sep-18 16:30N 42°20' W 070°58'4 7.3
2017-Sep-18 16:00N 42°22' W 071°03'2 3.7
2017-Sep-18 15:30N 42°21' W 071°01'4 8.0
2017-Sep-18 15:00N 42°19' W 070°56'2 4.3
2017-Sep-18 14:30N 42°20' W 070°58'4 7.4
2017-Sep-18 14:01N 42°22' W 071°03'0 0.0
2017-Sep-18 13:30N 42°22' W 071°03'0 0.0
2017-Sep-18 13:00N 42°22' W 071°03'0 0.0
2017-Sep-18 12:31N 42°22' W 071°03'0 0.0
2017-Sep-17 22:36N 42°22' W 071°03'0 1.7
2017-Sep-17 22:30N 42°22' W 071°03'0 0.3
2017-Sep-17 22:00N 42°22' W 071°03'1 2.6
2017-Sep-17 21:30N 42°21' W 071°01'4 9.0
2017-Sep-17 21:00N 42°19' W 070°56'2 3.5
2017-Sep-17 20:31N 42°20' W 070°58'4 8.0
2017-Sep-17 20:00N 42°22' W 071°03'2 4.0
2017-Sep-17 19:30N 42°21' W 071°01'4 7.5
2017-Sep-17 19:00N 42°19' W 070°56'2 4.6
2017-Sep-17 18:31N 42°20' W 070°59'4 7.1
2017-Sep-17 18:00N 42°22' W 071°03'2 4.2
2017-Sep-17 17:30N 42°21' W 071°01'4 7.5
2017-Sep-17 17:00N 42°19' W 070°56'2 3.7
2017-Sep-17 16:30N 42°20' W 070°58'4 8.0
2017-Sep-17 16:00N 42°22' W 071°03'2 4.5
2017-Sep-17 15:30N 42°20' W 071°00'4 7.2
2017-Sep-17 15:00N 42°19' W 070°56'2 4.6
2017-Sep-17 14:31N 42°20' W 070°59'4 7.1
2017-Sep-17 14:00N 42°22' W 071°03'0 0.0
2017-Sep-17 13:30N 42°22' W 071°03'0 0.0
2017-Sep-17 13:00N 42°22' W 071°03'0 0.0
2017-Sep-16 23:15N 42°22' W 071°03'0 0.4
2017-Sep-16 23:00N 42°22' W 071°03'0 0.2
2017-Sep-16 22:30N 42°22' W 071°03'0 0.1
2017-Sep-16 22:00N 42°22' W 071°03'1 2.1
2017-Sep-16 21:30N 42°21' W 071°02'5 9.4
2017-Sep-16 21:01N 42°19' W 070°56'1 2.2
2017-Sep-16 20:30N 42°20' W 070°57'4 8.4
2017-Sep-16 20:01N 42°22' W 071°02'1 2.8
2017-Sep-16 19:30N 42°21' W 071°01'4 7.8
2017-Sep-16 19:00N 42°19' W 070°56'3 5.5
2017-Sep-16 18:30N 42°20' W 070°59'3 6.0
2017-Sep-16 17:59N 42°22' W 071°03'2 4.7
2017-Sep-16 17:30N 42°21' W 071°00'4 7.2
2017-Sep-16 17:00N 42°19' W 070°56'2 4.1
2017-Sep-16 16:30N 42°20' W 070°58'4 7.6
2017-Sep-16 16:00N 42°22' W 071°03'2 4.6
2017-Sep-16 15:30N 42°21' W 071°00'4 7.1
2017-Sep-16 15:00N 42°19' W 070°56'2 4.1
2017-Sep-16 14:30N 42°20' W 070°58'4 7.6
2017-Sep-16 14:00N 42°22' W 071°03'0 0.0
2017-Sep-16 13:30N 42°22' W 071°03'0 0.0
2017-Sep-16 13:00N 42°22' W 071°03'0 0.0
2017-Sep-16 12:30N 42°22' W 071°03'0 0.0
2017-Sep-16 12:00N 42°22' W 071°03'0 0.0
2017-Sep-15 23:32N 42°22' W 071°03'0 0.0
2017-Sep-15 23:31N 42°22' W 071°03'0 0.1
2017-Sep-15 23:00N 42°22' W 071°03'0 0.0
2017-Sep-15 22:30N 42°22' W 071°03'0 0.0
2017-Sep-15 22:01N 42°22' W 071°03'0 0.8
2017-Sep-15 21:30N 42°21' W 071°02'5 9.5
2017-Sep-15 21:00N 42°19' W 070°57'2 3.4
2017-Sep-15 20:30N 42°20' W 070°59'4 7.0
2017-Sep-15 20:01N 42°22' W 071°03'2 4.0
2017-Sep-15 19:30N 42°21' W 071°01'4 7.7
2017-Sep-15 19:00N 42°19' W 070°56'2 4.8
2017-Sep-15 18:31N 42°20' W 070°59'3 6.6
2017-Sep-15 17:59N 42°22' W 071°03'2 4.0
2017-Sep-15 17:30N 42°21' W 071°01'4 7.9
2017-Sep-15 17:01N 42°19' W 070°56'2 3.4
2017-Sep-15 16:31N 42°20' W 070°58'4 8.3
2017-Sep-15 16:00N 42°22' W 071°03'3 5.0
2017-Sep-15 15:30N 42°21' W 070°60'3 6.7
2017-Sep-15 15:01N 42°19' W 070°56'2 3.7
2017-Sep-15 14:30N 42°20' W 070°58'4 7.9
2017-Sep-15 14:00N 42°22' W 071°03'0 0.0
2017-Sep-15 13:30N 42°22' W 071°03'0 0.0
2017-Sep-15 13:00N 42°22' W 071°03'1 1.2
2017-Sep-15 12:31N 42°22' W 071°02'0 0.0
2017-Sep-15 12:00N 42°22' W 071°02'1 0.0
2017-Sep-14 22:10N 42°22' W 071°03'0 0.1
2017-Sep-14 21:54N 42°22' W 071°03'2 6.2
2017-Sep-14 21:30N 42°21' W 071°00'3 6.7
2017-Sep-14 21:00N 42°19' W 070°56'3 5.1
2017-Sep-14 20:30N 42°20' W 070°59'3 6.6
2017-Sep-14 20:01N 42°22' W 071°03'2 3.5
2017-Sep-14 19:30N 42°21' W 071°01'2 3.2
2017-Sep-14 19:00N 42°19' W 071°01'0 0.0
2017-Sep-14 18:30N 42°19' W 071°01'0 0.0
2017-Sep-14 18:00N 42°19' W 071°01'0 0.0
2017-Sep-14 17:30N 42°19' W 071°01'0 0.0
2017-Sep-14 17:00N 42°19' W 071°01'0 0.0
2017-Sep-14 16:30N 42°19' W 071°01'0 0.0
2017-Sep-14 16:01N 42°19' W 071°01'0 0.0
2017-Sep-14 15:28N 42°19' W 071°01'0 0.0
2017-Sep-14 14:52N 42°19' W 071°01'1 2.3
2017-Sep-14 14:29N 42°20' W 070°60'3 6.0
2017-Sep-14 14:01N 42°22' W 071°03'0 0.0
2017-Sep-14 13:30N 42°22' W 071°03'0 0.0
2017-Sep-14 13:00N 42°22' W 071°03'1 0.1
2017-Sep-13 22:41N 42°23' W 071°03'0 0.4
2017-Sep-13 22:31N 42°23' W 071°03'1 2.6
2017-Sep-13 22:00N 42°22' W 071°03'1 1.4
2017-Sep-13 21:30N 42°21' W 071°02'5 9.2
2017-Sep-13 21:00N 42°19' W 070°57'1 2.7
2017-Sep-13 20:31N 42°20' W 070°58'4 8.0
2017-Sep-13 20:00N 42°22' W 071°03'2 3.0
2017-Sep-13 19:30N 42°21' W 071°01'4 8.6
2017-Sep-13 19:00N 42°19' W 070°56'2 4.5
2017-Sep-13 18:30N 42°20' W 070°59'4 7.1
2017-Sep-13 18:01N 42°22' W 071°03'2 3.2
2017-Sep-13 17:30N 42°21' W 071°01'4 8.4
2017-Sep-13 17:00N 42°19' W 070°56'2 4.4
2017-Sep-13 16:30N 42°20' W 070°59'4 7.2
2017-Sep-13 16:00N 42°22' W 071°03'2 3.7
2017-Sep-13 15:30N 42°21' W 071°01'4 8.0
2017-Sep-13 15:00N 42°19' W 070°56'2 3.6
2017-Sep-13 14:30N 42°20' W 070°58'4 8.0
2017-Sep-13 14:00N 42°22' W 071°03'0 0.0
2017-Sep-13 13:30N 42°22' W 071°03'0 0.0
2017-Sep-13 13:00N 42°22' W 071°03'0 0.1
2017-Sep-13 12:30N 42°22' W 071°03'0 0.1
2017-Sep-13 12:00N 42°22' W 071°03'0 0.0
2017-Sep-12 21:59N 42°22' W 071°03'2 3.8
2017-Sep-12 21:30N 42°21' W 071°01'4 8.0
2017-Sep-12 21:00N 42°19' W 070°56'1 2.2
2017-Sep-12 20:31N 42°20' W 070°57'5 9.2
2017-Sep-12 20:01N 42°22' W 071°03'2 3.1
2017-Sep-12 19:30N 42°21' W 071°01'4 8.3
2017-Sep-12 19:00N 42°19' W 070°56'2 4.3
2017-Sep-12 18:30N 42°20' W 070°58'4 7.3
2017-Sep-12 18:00N 42°22' W 071°03'2 3.2
2017-Sep-12 17:30N 42°21' W 071°01'4 8.4
2017-Sep-12 17:00N 42°19' W 070°56'2 4.4
2017-Sep-12 16:31N 42°20' W 070°58'4 7.2
2017-Sep-12 16:00N 42°22' W 071°03'2 3.4
2017-Sep-12 15:30N 42°21' W 071°01'4 8.2
2017-Sep-12 15:00N 42°19' W 070°56'2 4.1
2017-Sep-12 14:30N 42°20' W 070°58'4 7.5
2017-Sep-12 14:00N 42°22' W 071°03'0 0.0
2017-Sep-12 13:30N 42°22' W 071°03'0 0.0
2017-Sep-12 13:00N 42°22' W 071°03'0 0.0
2017-Sep-11 22:03N 42°22' W 071°03'0 0.0
2017-Sep-11 22:00N 42°22' W 071°03'2 3.4
2017-Sep-11 21:30N 42°21' W 071°01'4 8.2
2017-Sep-11 21:00N 42°19' W 070°56'1 2.4
2017-Sep-11 20:30N 42°20' W 070°57'5 9.1
2017-Sep-11 20:00N 42°22' W 071°03'2 3.7
2017-Sep-11 19:31N 42°21' W 071°01'4 7.7
2017-Sep-11 19:00N 42°19' W 070°56'2 4.6
2017-Sep-11 18:30N 42°20' W 070°59'4 7.1
2017-Sep-11 18:00N 42°22' W 071°03'2 3.6
2017-Sep-11 17:30N 42°21' W 071°01'4 8.0
2017-Sep-11 17:00N 42°19' W 070°56'2 4.0
2017-Sep-11 16:30N 42°20' W 070°58'4 7.6
2017-Sep-11 16:00N 42°22' W 071°03'2 3.8
2017-Sep-11 15:30N 42°21' W 071°01'4 7.9
2017-Sep-11 15:00N 42°19' W 070°56'2 4.4
2017-Sep-11 14:30N 42°20' W 070°59'4 7.2
2017-Sep-11 14:00N 42°22' W 071°03'0 0.0
2017-Sep-11 13:30N 42°22' W 071°03'0 0.0
2017-Sep-10 23:42N 42°22' W 071°03'0 0.1
2017-Sep-10 23:31N 42°22' W 071°03'1 1.3
2017-Sep-10 23:00N 42°22' W 071°03'3 7.0
2017-Sep-10 22:31N 42°20' W 070°60'3 5.8
2017-Sep-10 22:00N 42°22' W 071°03'0 0.5
2017-Sep-10 21:30N 42°22' W 071°03'0 0.5
2017-Sep-10 21:00N 42°22' W 071°03'0 0.0
2017-Sep-10 20:30N 42°22' W 071°03'4 4.8
2017-Sep-10 19:47N 42°19' W 070°59'0 0.3
2017-Sep-10 19:30N 42°19' W 070°59'4 7.1
2017-Sep-10 19:00N 42°22' W 071°03'0 0.6
2017-Sep-10 18:30N 42°22' W 071°03'3 6.2
2017-Sep-10 17:57N 42°19' W 070°59'0 0.2
2017-Sep-10 17:30N 42°19' W 070°59'4 7.2
2017-Sep-10 17:00N 42°22' W 071°03'0 0.0
2017-Sep-10 16:30N 42°22' W 071°03'0 0.6
2017-Sep-10 16:01N 42°22' W 071°03'3 6.6
2017-Sep-10 15:30N 42°19' W 070°59'0 0.9
2017-Sep-10 15:00N 42°20' W 070°60'3 3.0
2017-Sep-10 14:00N 42°22' W 071°03'0 0.4
2017-Sep-10 13:30N 42°22' W 071°03'1 1.1
2017-Sep-10 13:00N 42°22' W 071°02'0 0.0
2017-Sep-10 12:30N 42°22' W 071°02'0 0.0
2017-Sep-10 12:00N 42°22' W 071°02'0 0.0
2017-Sep-10 00:32N 42°22' W 071°02'0 0.0
2017-Sep-10 00:30N 42°22' W 071°02'1 1.4
2017-Sep-10 00:00N 42°22' W 071°03'0 0.0
2017-Sep-09 23:31N 42°22' W 071°03'0 1.0
2017-Sep-09 23:00N 42°22' W 071°02'2 4.4
2017-Sep-09 22:31N 42°20' W 070°60'3 5.3
2017-Sep-09 22:00N 42°22' W 071°03'0 0.0
2017-Sep-09 21:31N 42°22' W 071°03'0 0.0
2017-Sep-09 21:01N 42°22' W 071°03'0 0.8
2017-Sep-09 20:31N 42°22' W 071°02'3 6.1
2017-Sep-09 19:58N 42°19' W 070°59'0 0.3
2017-Sep-09 19:31N 42°19' W 070°60'4 7.0
2017-Sep-09 19:00N 42°22' W 071°03'0 1.0
2017-Sep-09 18:30N 42°21' W 071°02'3 6.3
2017-Sep-09 18:00N 42°19' W 070°59'1 1.4
2017-Sep-09 17:29N 42°20' W 070°60'3 6.1
2017-Sep-09 17:01N 42°22' W 071°03'0 0.0
2017-Sep-09 16:31N 42°22' W 071°03'0 0.8
2017-Sep-09 16:00N 42°22' W 071°02'3 6.0
2017-Sep-09 15:28N 42°19' W 070°59'1 2.1
2017-Sep-09 15:00N 42°20' W 071°00'3 5.3
2017-Sep-09 14:31N 42°22' W 071°03'1 1.2
2017-Sep-09 14:01N 42°22' W 071°03'1 1.5
2017-Sep-09 13:31N 42°22' W 071°03'0 0.4
2017-Sep-09 13:01N 42°22' W 071°03'0 0.0
2017-Sep-09 12:30N 42°22' W 071°03'1 0.1
2017-Sep-08 22:59N 42°22' W 071°02'  

Dump ship's entire track history